Detalii statie CORIPLANT MIHALT [0000197B]

Toti senzorii

Date Temperatura solului [C]Precipitatii [mm]Voltaj baterie [mV]Leaf Wetness [Min]HC Air temperature [C]HC Relative humidity [%]Punctul de roua [C]
medieminmaxsumaultimatimpmedieminmaxmediemediemin
2017-06-25 06:00:00 12.8 12.3 13.5 0 6874 13.22 12.81 13.79 100 13.1 12.8
2017-06-25 07:00:00 14.3 13.7 15.2 0 7030 14.65 13.9 15.53 100 14.6 13.9
2017-06-25 08:00:00 16.6 15.4 18.1 0 7108 17.44 15.78 19.84 100 17.3 15.7
2017-06-25 09:00:00 22.9 18.3 29.4 0 7098 22.87 20.21 24.3 94.41 21.8 20.2
2017-06-25 10:00:00 33.7 30.1 36.1 0 7080 26.13 24.89 27.26 81.58 22.5 22.1
2017-06-25 11:00:00 38.1 36.5 39.6 0 7148 28.69 27.13 29.9 73.44 23.2 21.4
2017-06-25 12:00:00 40.2 38.9 41.1 0 7176 30.48 29.55 31.1 63.07 22.4 21.3
2017-06-25 13:00:00 41.1 38.2 42.9 0 7176 31.62 30.94 32.38 56.62 21.7 20.5
2017-06-25 14:00:00 43.2 42.6 44 0 7166 32.71 32.38 33.26 55.18 22.3 20.1
2017-06-25 15:00:00 43.7 43.5 44.1 0 7166 33.14 32.78 33.56 51.61 21.6 19.6
2017-06-25 16:00:00 43 42.2 43.6 0 7166 33.19 32.78 33.62 54.26 22.4 21.1
2017-06-25 17:00:00 41 36.3 42.4 0 7166 60 33.25 32.58 33.73 56.12 23.1 21.8
2017-06-25 18:00:00 31.4 29.6 34.5 0 7176 31.67 31.06 32.55 59.03 22.4 21.9
2017-06-25 19:00:00 28.1 27.3 29.2 0 7186 30.4 29.55 31.22 65.54 23 22.1
2017-06-25 20:00:00 24.9 23.1 26.9 0 6972 28.15 25.27 29.66 71.47 22.2 21.3
2017-06-25 21:00:00 21.3 20.4 22.7 0 6854 22.99 22 24.7 83.94 19.9 19.2
2017-06-25 22:00:00 19.6 19.1 20.3 0 6834 20.99 20.37 22.02 96.93 20.3 19.8
2017-06-25 23:00:00 18.6 18.2 19.2 0 6826 19.72 18.96 20.4 100 19.6 18.9
2017-06-26 00:00:00 17.7 17.3 18.1 0 6816 18.19 17.73 18.76 100 18.1 17.7
2017-06-26 01:00:00 16.7 16.4 17.3 0 6806 17.24 16.86 17.65 100 17.2 16.8
2017-06-26 02:00:00 16.2 15.9 16.8 0 6796 16.73 16.61 16.97 100 16.7 16.6
2017-06-26 03:00:00 15.7 15.5 16.1 0 6796 16.36 16.12 16.71 100 16.3 16.1
2017-06-26 04:00:00 15.2 15 15.6 0 6786 15.96 15.68 16.27 100 15.9 15.6
2017-06-26 05:00:00 15.1 15 15.4 0 6796 15.74 15.52 16 100 15.7 15.5
2017-06-26 06:00:00 15.9 15.2 16.7 0 6884 16.19 15.63 16.6 100 16.1 15.6
2017-06-26 07:00:00 17.8 16.6 18.9 0 7108 17.65 16.63 18.31 100 17.6 16.6
2017-06-26 08:00:00 20.5 19.1 22.2 0 7186 20.21 18.51 22.51 100 20.1 18.5
2017-06-26 09:00:00 24.9 23.4 26.2 0 7176 24.21 23.84 24.85 97.98 23.7 23.2
2017-06-26 10:00:00 27.7 26.2 31.6 0 7186 25.24 24.52 26.71 94.33 24.1 23.5
2017-06-26 11:00:00 32.8 30.3 36.3 0 7176 26.84 26.02 28 85.66 24.1 23.3
2017-06-26 12:00:00 34.4 32.1 36 0 7176 27.71 26.82 28.58 82.05 24.2 23.3
2017-06-26 13:00:00 32.5 31.3 34.2 0 7186 27.4 26.77 28.77 82.8 24.1 23.3
2017-06-26 14:00:00 35.5 32.2 38.5 0 7010 28.79 27.21 30.29 75.29 23.7 22.9
2017-06-26 15:00:00 22 19.6 30.7 4.4 7216 22.35 20.6 26.81 97.46 21.8 20.6
2017-06-26 16:00:00 22 20.4 23 0.4 7186 21.97 20.82 22.48 100 21.9 20.8
2017-06-26 17:00:00 20.3 19.7 21.2 1.6 7196 20.85 20.3 21.63 100 20.8 20.3
2017-06-26 18:00:00 20.5 19.7 21.7 0 7206 21 20.33 22.31 100 20.9 20.3
2017-06-26 19:00:00 22.3 21.6 22.9 0 7088 23.06 22.17 23.94 100 23 22.1
2017-06-26 20:00:00 20.8 19.9 22 0 6894 21.59 20.68 22.69 100 21.5 20.6
2017-06-26 21:00:00 19.7 19.4 19.9 0 6874 20.24 19.99 20.57 100 20.1 19.9
2017-06-26 22:00:00 18.6 17.8 19.5 0 6844 19.15 18.21 20.02 100 19.1 18.2
2017-06-26 23:00:00 17.2 16.7 17.7 0 6844 17.84 17.47 18.3 100 17.8 17.4